createdAt,value
2023-01-30T00:05:17.343Z,17.60
2023-01-30T00:10:39.207Z,17.15
2023-01-30T00:16:01.276Z,16.33
2023-01-30T00:21:23.237Z,15.00
2023-01-30T00:26:45.180Z,15.63
2023-01-30T00:32:07.428Z,15.85
2023-01-30T00:37:29.307Z,14.43
2023-01-30T00:42:51.537Z,15.35
2023-01-30T00:48:13.492Z,14.98
2023-01-30T00:53:35.347Z,13.93
2023-01-30T00:58:57.215Z,13.32
2023-01-30T01:04:19.169Z,13.75
2023-01-30T01:09:41.534Z,13.38
2023-01-30T01:15:03.888Z,12.02
2023-01-30T01:20:25.875Z,12.80
2023-01-30T01:25:47.765Z,13.25
2023-01-30T01:31:14.981Z,11.50
2023-01-30T01:36:52.836Z,12.00
2023-01-30T01:42:15.680Z,10.88
2023-01-30T01:47:41.646Z,10.32
2023-01-30T01:53:03.564Z,9.55
2023-01-30T01:58:25.374Z,10.50
2023-01-30T02:03:52.332Z,9.27
2023-01-30T02:09:14.325Z,9.60
2023-01-30T02:14:37.663Z,9.27
2023-01-30T02:20:19.773Z,8.85
2023-01-30T02:25:50.677Z,8.55
2023-01-30T02:31:36.684Z,9.15
2023-01-30T02:37:17.537Z,9.27
2023-01-30T02:43:24.154Z,9.93
2023-01-30T02:49:21.298Z,10.93
2023-01-30T02:54:43.144Z,9.82
2023-01-30T03:00:06.210Z,10.55
2023-01-30T03:05:36.980Z,10.25
2023-01-30T03:11:03.544Z,10.93
2023-01-30T03:16:34.396Z,9.40
2023-01-30T03:21:56.251Z,9.80
2023-01-30T03:27:19.471Z,9.60
2023-01-30T03:32:41.482Z,9.85
2023-01-30T03:38:03.431Z,9.82
2023-01-30T03:43:25.261Z,10.45
2023-01-30T03:48:47.080Z,10.70
2023-01-30T03:54:08.987Z,10.75
2023-01-30T03:59:30.834Z,11.20
2023-01-30T04:04:53.165Z,11.40
2023-01-30T04:10:15.646Z,10.57
2023-01-30T04:15:37.491Z,11.40
2023-01-30T04:20:59.318Z,12.60
2023-01-30T04:26:21.188Z,11.82
2023-01-30T04:31:43.065Z,10.77
2023-01-30T04:37:04.900Z,10.55
2023-01-30T04:42:26.908Z,10.55
2023-01-30T04:47:48.841Z,10.98
2023-01-30T04:53:11.589Z,10.45
2023-01-30T04:58:33.435Z,9.77
2023-01-30T05:03:55.665Z,8.77
2023-01-30T05:09:17.763Z,9.40
2023-01-30T05:14:39.816Z,8.98
2023-01-30T05:20:01.708Z,8.35
2023-01-30T05:25:23.512Z,8.25
2023-01-30T05:30:47.192Z,8.32
2023-01-30T05:36:15.285Z,8.43
2023-01-30T05:41:37.351Z,8.50
2023-01-30T05:46:59.191Z,8.18
2023-01-30T05:52:21.020Z,7.88
2023-01-30T05:57:42.924Z,8.30
2023-01-30T06:03:04.907Z,8.25
2023-01-30T06:08:26.859Z,9.40
2023-01-30T06:13:48.779Z,7.85
2023-01-30T06:19:10.676Z,9.25
2023-01-30T06:24:32.460Z,8.25
2023-01-30T06:29:54.285Z,8.88
2023-01-30T06:35:16.652Z,8.40
2023-01-30T06:40:39.347Z,9.05
2023-01-30T06:46:01.393Z,9.65
2023-01-30T06:51:23.248Z,8.43
2023-01-30T06:56:45.181Z,9.70
2023-01-30T07:02:07.066Z,10.20
2023-01-30T07:07:30.007Z,9.45
2023-01-30T07:12:52.146Z,9.35
2023-01-30T07:18:13.956Z,9.25
2023-01-30T07:23:35.900Z,9.90
2023-01-30T07:28:57.788Z,9.43
2023-01-30T07:34:19.717Z,10.85
2023-01-30T07:39:41.866Z,10.38
2023-01-30T07:45:03.914Z,10.75
2023-01-30T07:50:25.860Z,11.35
2023-01-30T07:55:47.807Z,10.60
2023-01-30T08:01:09.751Z,11.57
2023-01-30T08:06:31.676Z,12.27
2023-01-30T08:11:53.728Z,12.27
2023-01-30T08:17:15.658Z,13.57
2023-01-30T08:22:37.527Z,14.35
2023-01-30T08:27:59.719Z,14.52
2023-01-30T08:33:22.261Z,14.50
2023-01-30T08:38:44.656Z,14.95
2023-01-30T08:44:06.535Z,14.65
2023-01-30T08:49:28.347Z,15.05
2023-01-30T08:54:50.166Z,15.95
2023-01-30T09:00:12.370Z,15.07
2023-01-30T09:05:34.219Z,15.35
2023-01-30T09:11:00.421Z,15.93
2023-01-30T09:16:22.316Z,16.00
2023-01-30T09:21:44.259Z,16.42
2023-01-30T09:27:06.061Z,15.55
2023-01-30T09:32:27.886Z,16.20
2023-01-30T09:37:53.912Z,16.60
2023-01-30T09:43:36.803Z,15.00
2023-01-30T09:49:23.520Z,14.55
2023-01-30T09:54:46.056Z,15.32
2023-01-30T10:00:20.067Z,14.32
2023-01-30T10:06:02.350Z,14.25
2023-01-30T10:11:55.368Z,13.35
2023-01-30T10:17:27.725Z,13.57
2023-01-30T10:22:52.331Z,12.82
2023-01-30T10:28:32.812Z,14.30
2023-01-30T10:34:09.972Z,12.07
2023-01-30T10:39:54.960Z,13.45
2023-01-30T10:45:21.114Z,10.17
2023-01-30T10:50:55.479Z,11.83
2023-01-30T10:56:20.093Z,12.38
2023-01-30T11:01:48.628Z,11.88
2023-01-30T11:07:12.551Z,12.82
2023-01-30T11:12:34.379Z,12.32
2023-01-30T11:18:40.375Z,12.27
2023-01-30T11:23:47.294Z,11.52
2023-01-30T11:29:25.960Z,12.02
2023-01-30T11:35:08.716Z,10.85
2023-01-30T11:40:30.830Z,10.82
2023-01-30T11:45:52.786Z,9.70
2023-01-30T11:51:16.382Z,9.60
2023-01-30T11:56:53.773Z,8.50
2023-01-30T12:02:24.372Z,9.02
2023-01-30T12:07:46.275Z,9.05
2023-01-30T12:13:21.644Z,8.25
2023-01-30T12:18:58.161Z,8.10
2023-01-30T12:24:31.121Z,8.10
2023-01-30T12:30:20.459Z,7.85
2023-01-30T12:36:05.844Z,8.15
2023-01-30T12:41:38.793Z,8.10
2023-01-30T12:47:35.050Z,8.52
2023-01-30T12:53:04.573Z,8.73
2023-01-30T12:58:40.786Z,8.70
2023-01-30T13:04:56.228Z,9.40
2023-01-30T13:10:25.459Z,8.93
2023-01-30T13:15:57.204Z,9.45
2023-01-30T13:21:34.316Z,9.43
2023-01-30T13:27:00.136Z,10.55
2023-01-30T13:32:36.836Z,9.45
2023-01-30T13:38:00.469Z,9.63
2023-01-30T13:43:27.061Z,10.65
2023-01-30T13:49:19.620Z,11.65
2023-01-30T13:55:01.279Z,10.85
2023-01-30T14:00:33.874Z,11.73
2023-01-30T14:05:55.741Z,11.45
2023-01-30T14:11:28.715Z,12.10
2023-01-30T14:17:07.517Z,11.15
2023-01-30T14:22:47.775Z,11.77
2023-01-30T14:28:09.551Z,10.85
2023-01-30T14:33:34.860Z,11.82
2023-01-30T14:39:37.296Z,11.27
2023-01-30T14:45:48.592Z,10.85
2023-01-30T14:51:28.741Z,10.80
2023-01-30T14:57:01.976Z,11.52
2023-01-30T15:02:30.259Z,11.05
2023-01-30T15:08:08.471Z,10.65
2023-01-30T15:13:46.099Z,10.93
2023-01-30T15:19:35.705Z,11.07
2023-01-30T15:25:09.833Z,11.02
2023-01-30T15:30:55.148Z,11.07
2023-01-30T15:36:19.060Z,10.87
2023-01-30T15:41:43.136Z,10.25
2023-01-30T15:47:20.356Z,9.88
2023-01-30T15:52:48.104Z,10.75
2023-01-30T15:58:16.999Z,10.38
2023-01-30T16:03:40.831Z,9.77
2023-01-30T16:09:19.787Z,9.90
2023-01-30T16:14:41.643Z,8.60
2023-01-30T16:20:03.878Z,8.70
2023-01-30T16:25:27.740Z,9.02
2023-01-30T16:30:57.808Z,9.50
2023-01-30T16:36:19.654Z,8.85
2023-01-30T16:41:41.501Z,9.18
2023-01-30T16:47:21.076Z,9.45
2023-01-30T16:52:50.416Z,9.20
2023-01-30T16:58:17.559Z,8.52
2023-01-30T17:03:43.338Z,8.48
2023-01-30T17:09:27.261Z,9.53
2023-01-30T17:14:49.204Z,8.77
2023-01-30T17:20:13.312Z,7.80
2023-01-30T17:25:44.496Z,9.25
2023-01-30T17:31:06.501Z,8.75
2023-01-30T17:36:30.659Z,8.45
2023-01-30T17:41:53.865Z,9.18
2023-01-30T17:47:17.157Z,7.32
2023-01-30T17:52:39.135Z,8.65
2023-01-30T17:58:01.485Z,7.80
2023-01-30T18:03:23.357Z,7.80
2023-01-30T18:08:45.360Z,8.07
2023-01-30T18:14:07.298Z,7.35
2023-01-30T18:19:29.571Z,6.53
2023-01-30T18:24:51.646Z,7.90
2023-01-30T18:30:17.496Z,7.25
2023-01-30T18:35:39.870Z,7.68
2023-01-30T18:41:09.252Z,6.45
2023-01-30T18:46:31.300Z,6.78
2023-01-30T18:51:53.398Z,6.03
2023-01-30T18:57:15.353Z,6.72
2023-01-30T19:02:37.364Z,6.38
2023-01-30T19:07:59.243Z,6.15
2023-01-30T19:13:21.143Z,6.22
2023-01-30T19:18:42.982Z,6.30
2023-01-30T19:24:06.994Z,6.80
2023-01-30T19:29:29.212Z,6.05
2023-01-30T19:34:51.273Z,6.82
2023-01-30T19:40:13.275Z,7.55
2023-01-30T19:45:35.259Z,6.47
2023-01-30T19:50:57.292Z,7.25
2023-01-30T19:56:19.571Z,6.85
2023-01-30T20:01:41.767Z,6.65
2023-01-30T20:07:03.685Z,6.43
2023-01-30T20:12:25.965Z,6.90
2023-01-30T20:17:47.835Z,6.30
2023-01-30T20:23:09.665Z,7.15
2023-01-30T20:28:32.089Z,6.50
2023-01-30T20:33:54.810Z,6.60
2023-01-30T20:39:16.748Z,6.40
2023-01-30T20:44:38.593Z,6.60
2023-01-30T20:50:00.477Z,6.13
2023-01-30T20:55:22.497Z,6.53
2023-01-30T21:00:44.401Z,25.27
2023-01-30T21:06:06.410Z,8.07
2023-01-30T21:11:28.422Z,6.38
2023-01-30T21:16:50.376Z,5.40
2023-01-30T21:22:12.295Z,5.82
2023-01-30T21:27:34.149Z,5.93
2023-01-30T21:32:56.022Z,6.15
2023-01-30T21:38:17.922Z,6.28
2023-01-30T21:43:40.152Z,6.68
2023-01-30T21:49:02.038Z,5.90
2023-01-30T21:54:24.167Z,5.47
2023-01-30T21:59:46.069Z,5.50
2023-01-30T22:05:08.656Z,5.72
2023-01-30T22:10:30.816Z,5.95
2023-01-30T22:15:52.677Z,6.13
2023-01-30T22:21:16.802Z,5.15
2023-01-30T22:26:38.810Z,5.40
2023-01-30T22:32:00.746Z,6.00
2023-01-30T22:37:22.645Z,5.63
2023-01-30T22:42:48.045Z,4.95
2023-01-30T22:48:09.891Z,5.20
2023-01-30T22:53:37.097Z,4.55
2023-01-30T22:58:58.920Z,5.57
2023-01-30T23:04:23.167Z,4.63
2023-01-30T23:09:44.989Z,5.45
2023-01-30T23:15:07.499Z,5.35
2023-01-30T23:20:30.184Z,5.28
2023-01-30T23:25:52.408Z,4.70
2023-01-30T23:31:18.128Z,4.93
2023-01-30T23:36:40.101Z,5.00
2023-01-30T23:42:02.109Z,5.32
2023-01-30T23:47:23.982Z,6.45
2023-01-30T23:52:45.885Z,5.90
2023-01-30T23:58:07.746Z,5.45
